AAL174 KRDU-EGLL
Flight info
| Callsign | AAL174 |
|---|---|
| Flight time | N/A |
| Altitude | 37000 |
| Route | BEXGO5 BOUSY DCT GEARS DCT BBOBO Q22 FOXWD DCT ALLEX N503B ALLRY/M082F370 DCT 51N050W 53N040W 5330N03000W 53N020W DCT TOBOR/N0478F370 DCT RILED DCT DAP DCT LIFFY UL975 MALUD Q38 NUGRA |
| Aircraft | B772/H-SDE2E3FGHIJ5LORVWXY/LB1D1 |
Departure
| Time | 2026-05-01 14:27 |
|---|---|
| Airport | Raleigh-Durham International Airport (KRDU) |
Arrival
| Time | N/A |
|---|---|
| Airport | London Heathrow Airport (EGLL) |
| Time | Latitude | Longitude | Altitude | Speed | Heading |
|---|---|---|---|---|---|
| 2026-05-01 14:12 | 35.87988 | -78.79088 | 396 ft | 0 kts | 226° |
| 2026-05-01 14:18 | 35.87994 | -78.79081 | 393 ft | 4 kts | 226° |
| 2026-05-01 14:18 | 35.88006 | -78.79065 | 394 ft | 4 kts | 226° |
| 2026-05-01 14:19 | 35.88031 | -78.79033 | 391 ft | 4 kts | 226° |
| 2026-05-01 14:19 | 35.88046 | -78.79015 | 392 ft | 0 kts | 226° |
| 2026-05-01 14:22 | 35.88043 | -78.79024 | 393 ft | 2 kts | 254° |
| 2026-05-01 14:22 | 35.88058 | -78.79053 | 393 ft | 7 kts | 307° |
| 2026-05-01 14:22 | 35.88085 | -78.79132 | 395 ft | 12 kts | 295° |
| 2026-05-01 14:22 | 35.88078 | -78.79223 | 394 ft | 12 kts | 230° |
| 2026-05-01 14:23 | 35.88021 | -78.79296 | 395 ft | 12 kts | 225° |
| 2026-05-01 14:23 | 35.87961 | -78.79371 | 392 ft | 13 kts | 225° |
| 2026-05-01 14:23 | 35.87888 | -78.79460 | 392 ft | 16 kts | 225° |
| 2026-05-01 14:23 | 35.87803 | -78.79565 | 391 ft | 19 kts | 225° |
| 2026-05-01 14:24 | 35.87712 | -78.79677 | 393 ft | 19 kts | 225° |
| 2026-05-01 14:24 | 35.87620 | -78.79790 | 391 ft | 19 kts | 225° |
| 2026-05-01 14:24 | 35.87529 | -78.79903 | 391 ft | 19 kts | 225° |
| 2026-05-01 14:24 | 35.87443 | -78.80010 | 391 ft | 15 kts | 225° |
| 2026-05-01 14:25 | 35.87398 | -78.80067 | 395 ft | 7 kts | 234° |
| 2026-05-01 14:25 | 35.87402 | -78.80123 | 393 ft | 7 kts | 304° |
| 2026-05-01 14:25 | 35.87437 | -78.80162 | 395 ft | 7 kts | 321° |
| 2026-05-01 14:25 | 35.87501 | -78.80130 | 395 ft | 23 kts | 47° |
| 2026-05-01 14:26 | 35.87663 | -78.79934 | 392 ft | 45 kts | 44° |
| 2026-05-01 14:26 | 35.88558 | -78.78823 | 403 ft | 146 kts | 45° |
| 2026-05-01 14:26 | 35.89326 | -78.77880 | 824 ft | 163 kts | 45° |
| 2026-05-01 14:27 | 35.90160 | -78.76881 | 1585 ft | 174 kts | 46° |
| 2026-05-01 14:27 | 35.91014 | -78.75854 | 2832 ft | 164 kts | 50° |
| 2026-05-01 14:27 | 35.91738 | -78.74823 | 3781 ft | 157 kts | 53° |
| 2026-05-01 14:28 | 35.93492 | -78.72769 | 4111 ft | 193 kts | 37° |
| 2026-05-01 14:28 | 35.94648 | -78.71761 | 4301 ft | 214 kts | 38° |
| 2026-05-01 14:28 | 35.95909 | -78.70625 | 4442 ft | 236 kts | 38° |
| 2026-05-01 14:28 | 35.97291 | -78.69366 | 4635 ft | 259 kts | 37° |
| 2026-05-01 14:29 | 35.98781 | -78.67997 | 5033 ft | 272 kts | 36° |
| 2026-05-01 14:29 | 36.00321 | -78.66582 | 5577 ft | 280 kts | 36° |
| 2026-05-01 14:30 | 36.05091 | -78.62165 | 7454 ft | 292 kts | 34° |
| 2026-05-01 14:30 | 36.06726 | -78.60643 | 8044 ft | 296 kts | 34° |
| 2026-05-01 14:30 | 36.08379 | -78.59101 | 8640 ft | 300 kts | 33° |
| 2026-05-01 14:31 | 36.11733 | -78.55969 | 9837 ft | 308 kts | 32° |
| 2026-05-01 14:31 | 36.13435 | -78.54379 | 10301 ft | 316 kts | 32° |
| 2026-05-01 14:31 | 36.15251 | -78.52687 | 10442 ft | 337 kts | 32° |
| 2026-05-01 14:31 | 36.17176 | -78.50890 | 10673 ft | 354 kts | 32° |
| 2026-05-01 14:32 | 36.19170 | -78.49019 | 11169 ft | 364 kts | 32° |
| 2026-05-01 14:32 | 36.21209 | -78.47100 | 11808 ft | 370 kts | 32° |
| 2026-05-01 14:32 | 36.23263 | -78.45168 | 12532 ft | 373 kts | 32° |
| 2026-05-01 14:32 | 36.25344 | -78.43212 | 13265 ft | 377 kts | 32° |
| 2026-05-01 14:33 | 36.27447 | -78.41238 | 13939 ft | 382 kts | 32° |
| 2026-05-01 14:33 | 36.29592 | -78.39238 | 14518 ft | 388 kts | 32° |
| 2026-05-01 14:33 | 36.31768 | -78.37219 | 15099 ft | 394 kts | 31° |
| 2026-05-01 14:33 | 36.33982 | -78.35166 | 15681 ft | 400 kts | 31° |
| 2026-05-01 14:34 | 36.36226 | -78.33082 | 16282 ft | 406 kts | 31° |
| 2026-05-01 14:34 | 36.38498 | -78.30966 | 16896 ft | 411 kts | 31° |
| 2026-05-01 14:34 | 36.40800 | -78.28820 | 17481 ft | 417 kts | 31° |
| 2026-05-01 14:34 | 36.43144 | -78.26633 | 18105 ft | 424 kts | 31° |
| 2026-05-01 14:35 | 36.45513 | -78.24419 | 18693 ft | 428 kts | 30° |
| 2026-05-01 14:35 | 36.47904 | -78.22184 | 19322 ft | 432 kts | 30° |
| 2026-05-01 14:35 | 36.50323 | -78.19923 | 19917 ft | 437 kts | 29° |
| 2026-05-01 14:35 | 36.52758 | -78.17638 | 20510 ft | 442 kts | 29° |
| 2026-05-01 14:36 | 36.55229 | -78.15311 | 21075 ft | 448 kts | 29° |
| 2026-05-01 14:36 | 36.57697 | -78.12981 | 21718 ft | 454 kts | 28° |
| 2026-05-01 14:36 | 36.60252 | -78.10566 | 22356 ft | 458 kts | 28° |
| 2026-05-01 14:36 | 36.62773 | -78.08180 | 23000 ft | 463 kts | 28° |
| 2026-05-01 14:37 | 36.65341 | -78.05745 | 23744 ft | 465 kts | 28° |
| 2026-05-01 14:37 | 36.67907 | -78.03311 | 24266 ft | 470 kts | 27° |
| 2026-05-01 14:37 | 36.70523 | -78.00832 | 24753 ft | 475 kts | 27° |
| 2026-05-01 14:37 | 36.73164 | -77.98324 | 25290 ft | 478 kts | 27° |
| 2026-05-01 14:38 | 36.75814 | -77.95803 | 25840 ft | 481 kts | 26° |
| 2026-05-01 14:38 | 36.78493 | -77.93257 | 26298 ft | 487 kts | 26° |
| 2026-05-01 14:38 | 36.81191 | -77.90664 | 26769 ft | 494 kts | 28° |
| 2026-05-01 14:38 | 36.83645 | -77.87526 | 27189 ft | 519 kts | 44° |
| 2026-05-01 14:39 | 36.85733 | -77.83787 | 27633 ft | 529 kts | 48° |
| 2026-05-01 14:39 | 36.87754 | -77.79911 | 28031 ft | 536 kts | 49° |
| 2026-05-01 14:39 | 36.89795 | -77.75998 | 28394 ft | 541 kts | 48° |
| 2026-05-01 14:39 | 36.91891 | -77.72074 | 28785 ft | 545 kts | 47° |
| 2026-05-01 14:40 | 36.94038 | -77.68147 | 29256 ft | 547 kts | 46° |
| 2026-05-01 14:40 | 36.96215 | -77.64228 | 29679 ft | 551 kts | 46° |
| 2026-05-01 14:40 | 36.98416 | -77.60289 | 30053 ft | 555 kts | 46° |
| 2026-05-01 14:40 | 37.00635 | -77.56309 | 30334 ft | 560 kts | 46° |
| 2026-05-01 14:41 | 37.02869 | -77.52285 | 30592 ft | 565 kts | 46° |
| 2026-05-01 14:41 | 37.05113 | -77.48226 | 30971 ft | 568 kts | 46° |
| 2026-05-01 14:41 | 37.07431 | -77.44268 | 31235 ft | 561 kts | 38° |
| 2026-05-01 14:41 | 37.10168 | -77.40903 | 31488 ft | 543 kts | 26° |
| 2026-05-01 14:42 | 37.13190 | -77.38234 | 31751 ft | 528 kts | 17° |
| 2026-05-01 14:42 | 37.16356 | -77.36158 | 32033 ft | 511 kts | 8° |
| 2026-05-01 14:42 | 37.19644 | -77.34719 | 32295 ft | 497 kts | 2° |
| 2026-05-01 14:42 | 37.22948 | -77.33389 | 32481 ft | 502 kts | 3° |
| 2026-05-01 14:43 | 37.26272 | -77.32019 | 32762 ft | 503 kts | 3° |
| 2026-05-01 14:43 | 37.29597 | -77.30612 | 33138 ft | 504 kts | 4° |
| 2026-05-01 14:43 | 37.32904 | -77.29186 | 33538 ft | 502 kts | 4° |
| 2026-05-01 14:43 | 37.36198 | -77.27751 | 33974 ft | 500 kts | 4° |
| 2026-05-01 14:44 | 37.39474 | -77.26319 | 34336 ft | 498 kts | 4° |
| 2026-05-01 14:44 | 37.46025 | -77.23466 | 34865 ft | 498 kts | 4° |
| 2026-05-01 14:44 | 37.49305 | -77.22040 | 35116 ft | 499 kts | 4° |
| 2026-05-01 14:45 | 37.52593 | -77.20609 | 35384 ft | 500 kts | 4° |
| 2026-05-01 14:45 | 37.59171 | -77.17736 | 35933 ft | 500 kts | 5° |
| 2026-05-01 14:45 | 37.62458 | -77.16297 | 36235 ft | 499 kts | 5° |
| 2026-05-01 14:46 | 37.65740 | -77.14861 | 36500 ft | 499 kts | 5° |
| 2026-05-01 14:46 | 37.72248 | -77.11451 | 36964 ft | 519 kts | 15° |
| 2026-05-01 14:46 | 37.75441 | -77.09261 | 37041 ft | 524 kts | 16° |
| 2026-05-01 14:47 | 37.81811 | -77.04729 | 37087 ft | 524 kts | 17° |
| 2026-05-01 14:48 | 37.91278 | -76.98061 | 37094 ft | 517 kts | 16° |
| 2026-05-01 14:48 | 38.00732 | -76.91504 | 37075 ft | 520 kts | 16° |
| 2026-05-01 14:49 | 38.13437 | -76.82630 | 37074 ft | 522 kts | 17° |
| 2026-05-01 14:50 | 38.26043 | -76.73332 | 37078 ft | 536 kts | 26° |
| 2026-05-01 14:51 | 38.34640 | -76.63970 | 37066 ft | 543 kts | 31° |
| 2026-05-01 14:52 | 38.43208 | -76.54601 | 37077 ft | 539 kts | 30° |
| 2026-05-01 14:53 | 38.51794 | -76.45396 | 37068 ft | 536 kts | 30° |
| 2026-05-01 14:53 | 38.56540 | -76.40307 | 37127 ft | 535 kts | 31° |
| 2026-05-01 14:54 | 38.63168 | -76.33169 | 37072 ft | 536 kts | 31° |
| 2026-05-01 14:54 | 38.68852 | -76.27025 | 37070 ft | 535 kts | 31° |
| 2026-05-01 14:55 | 38.73614 | -76.21867 | 37070 ft | 535 kts | 31° |
| 2026-05-01 14:55 | 38.79298 | -76.15702 | 37073 ft | 536 kts | 31° |
| 2026-05-01 14:56 | 38.84986 | -76.09517 | 37063 ft | 536 kts | 31° |
| 2026-05-01 14:56 | 38.90667 | -76.03326 | 37066 ft | 536 kts | 31° |
| 2026-05-01 14:57 | 38.96305 | -75.97170 | 37111 ft | 536 kts | 32° |
| 2026-05-01 14:57 | 39.04590 | -75.87427 | 37060 ft | 540 kts | 35° |
| 2026-05-01 14:58 | 39.10063 | -75.80805 | 37048 ft | 540 kts | 34° |
| 2026-05-01 14:58 | 39.15557 | -75.74230 | 37078 ft | 539 kts | 34° |
| 2026-05-01 14:59 | 39.21027 | -75.67702 | 37045 ft | 540 kts | 34° |
| 2026-05-01 14:59 | 39.26529 | -75.61112 | 37037 ft | 540 kts | 34° |
| 2026-05-01 15:00 | 39.34773 | -75.51191 | 37102 ft | 540 kts | 35° |
| 2026-05-01 15:01 | 39.40260 | -75.44544 | 37037 ft | 541 kts | 36° |
| 2026-05-01 15:01 | 39.45745 | -75.37881 | 37042 ft | 540 kts | 36° |
| 2026-05-01 15:02 | 39.51201 | -75.31244 | 37031 ft | 541 kts | 36° |
| 2026-05-01 15:02 | 39.56681 | -75.24563 | 37044 ft | 541 kts | 36° |
| 2026-05-01 15:03 | 39.62152 | -75.17877 | 37031 ft | 540 kts | 36° |
| 2026-05-01 15:03 | 39.67614 | -75.11187 | 37033 ft | 540 kts | 36° |
| 2026-05-01 15:04 | 39.73233 | -75.04803 | 37019 ft | 535 kts | 32° |
| 2026-05-01 15:04 | 39.78939 | -74.98573 | 37026 ft | 536 kts | 33° |
| 2026-05-01 15:05 | 39.84530 | -74.92222 | 37028 ft | 538 kts | 34° |
| 2026-05-01 15:05 | 39.90174 | -74.85844 | 37027 ft | 535 kts | 31° |
| 2026-05-01 15:06 | 39.96191 | -74.80269 | 37032 ft | 529 kts | 27° |
| 2026-05-01 15:06 | 40.02211 | -74.74702 | 37023 ft | 533 kts | 32° |
| 2026-05-01 15:07 | 40.07613 | -74.67949 | 37029 ft | 543 kts | 43° |
| 2026-05-01 15:07 | 40.12599 | -74.60529 | 37034 ft | 543 kts | 43° |
| 2026-05-01 15:08 | 40.17630 | -74.53203 | 37013 ft | 541 kts | 42° |
| 2026-05-01 15:08 | 40.22950 | -74.46374 | 37013 ft | 531 kts | 33° |
| 2026-05-01 15:09 | 40.28701 | -74.40329 | 37067 ft | 529 kts | 32° |
| 2026-05-01 15:09 | 40.34447 | -74.34298 | 37004 ft | 530 kts | 33° |
| 2026-05-01 15:10 | 40.40167 | -74.28188 | 37008 ft | 529 kts | 33° |
| 2026-05-01 15:10 | 40.48716 | -74.18990 | 37035 ft | 530 kts | 34° |
| 2026-05-01 15:11 | 40.57260 | -74.09782 | 37010 ft | 530 kts | 34° |
| 2026-05-01 15:12 | 40.62961 | -74.03634 | 37013 ft | 530 kts | 34° |
| 2026-05-01 15:12 | 40.71508 | -73.94387 | 37013 ft | 530 kts | 34° |
| 2026-05-01 15:14 | 40.85614 | -73.78647 | 37010 ft | 535 kts | 42° |
| 2026-05-01 15:14 | 40.92481 | -73.66906 | 36980 ft | 540 kts | 53° |
| 2026-05-01 15:15 | 41.00993 | -73.50517 | 37002 ft | 541 kts | 52° |
| 2026-05-01 15:16 | 41.09579 | -73.34194 | 36970 ft | 541 kts | 52° |
| 2026-05-01 15:18 | 41.20302 | -73.13667 | 36975 ft | 541 kts | 53° |
| 2026-05-01 15:19 | 41.28827 | -72.97231 | 36964 ft | 540 kts | 54° |
| 2026-05-01 15:19 | 41.34666 | -72.84456 | 36979 ft | 540 kts | 58° |
| 2026-05-01 15:20 | 41.40381 | -72.71538 | 36953 ft | 539 kts | 58° |
| 2026-05-01 15:21 | 41.44206 | -72.62955 | 36939 ft | 539 kts | 57° |
| 2026-05-01 15:21 | 41.48033 | -72.54370 | 36943 ft | 538 kts | 57° |
| 2026-05-01 15:22 | 41.53759 | -72.41471 | 36953 ft | 539 kts | 58° |
| 2026-05-01 15:22 | 41.57570 | -72.32846 | 36951 ft | 539 kts | 58° |
| 2026-05-01 15:23 | 41.61378 | -72.24206 | 36925 ft | 540 kts | 58° |
| 2026-05-01 15:23 | 41.65182 | -72.15550 | 36957 ft | 540 kts | 58° |
| 2026-05-01 15:24 | 41.68979 | -72.06885 | 36957 ft | 539 kts | 58° |
| 2026-05-01 15:24 | 41.72762 | -71.98225 | 36948 ft | 539 kts | 58° |
| 2026-05-01 15:25 | 41.76528 | -71.89580 | 36925 ft | 538 kts | 58° |
| 2026-05-01 15:25 | 41.80290 | -71.80998 | 36936 ft | 537 kts | 56° |
| 2026-05-01 15:26 | 41.84697 | -71.72964 | 36937 ft | 534 kts | 49° |
| 2026-05-01 15:26 | 41.89341 | -71.65197 | 36936 ft | 534 kts | 49° |
| 2026-05-01 15:27 | 41.93974 | -71.57398 | 36957 ft | 534 kts | 50° |
| 2026-05-01 15:28 | 42.00860 | -71.45618 | 36937 ft | 533 kts | 50° |
| 2026-05-01 15:28 | 42.05422 | -71.37756 | 36931 ft | 533 kts | 50° |
| 2026-05-01 15:29 | 42.12262 | -71.25945 | 36923 ft | 533 kts | 50° |
| 2026-05-01 15:30 | 42.20591 | -71.11507 | 36930 ft | 533 kts | 50° |
| 2026-05-01 15:31 | 42.34946 | -70.86456 | 36895 ft | 531 kts | 51° |
| 2026-05-01 15:32 | 42.43883 | -70.70757 | 36895 ft | 530 kts | 51° |
| 2026-05-01 15:34 | 42.57168 | -70.47261 | 36884 ft | 529 kts | 52° |